sensor_id;sensor_type;location;lat;lon;timestamp;pressure;altitude;pressure_sealevel;temperature;humidity
54918;BME280;40818;50.562;7.454;2023-05-16T00:00:37;97618.34;;;10.11;100.00
54918;BME280;40818;50.562;7.454;2023-05-16T00:10:57;97624.56;;;10.08;100.00
54918;BME280;40818;50.562;7.454;2023-05-16T00:21:00;97624.75;;;10.05;100.00
54918;BME280;40818;50.562;7.454;2023-05-16T00:31:07;97613.75;;;10.02;100.00
54918;BME280;40818;50.562;7.454;2023-05-16T01:03:23;97615.97;;;9.81;100.00
54918;BME280;40818;50.562;7.454;2023-05-16T01:13:43;97620.81;;;9.72;100.00
54918;BME280;40818;50.562;7.454;2023-05-16T01:23:59;97609.63;;;9.72;100.00
54918;BME280;40818;50.562;7.454;2023-05-16T01:34:10;97608.81;;;9.57;100.00
54918;BME280;40818;50.562;7.454;2023-05-16T01:44:18;97617.25;;;9.61;100.00
54918;BME280;40818;50.562;7.454;2023-05-16T01:54:31;97620.75;;;9.60;100.00
54918;BME280;40818;50.562;7.454;2023-05-16T02:04:40;97632.50;;;9.65;100.00
54918;BME280;40818;50.562;7.454;2023-05-16T02:15:22;97629.34;;;9.60;100.00
54918;BME280;40818;50.562;7.454;2023-05-16T02:25:26;97627.81;;;9.57;100.00
54918;BME280;40818;50.562;7.454;2023-05-16T02:35:31;97644.78;;;9.34;100.00
54918;BME280;40818;50.562;7.454;2023-05-16T02:45:35;97646.19;;;9.26;100.00
54918;BME280;40818;50.562;7.454;2023-05-16T02:55:41;97647.75;;;9.14;100.00
54918;BME280;40818;50.562;7.454;2023-05-16T03:05:45;97654.16;;;8.94;100.00
54918;BME280;40818;50.562;7.454;2023-05-16T03:15:51;97672.72;;;8.71;100.00
54918;BME280;40818;50.562;7.454;2023-05-16T03:25:55;97689.44;;;8.66;100.00
54918;BME280;40818;50.562;7.454;2023-05-16T03:36:01;97692.28;;;8.61;100.00
54918;BME280;40818;50.562;7.454;2023-05-16T03:46:04;97704.66;;;8.56;100.00
54918;BME280;40818;50.562;7.454;2023-05-16T03:56:10;97707.34;;;8.38;100.00
54918;BME280;40818;50.562;7.454;2023-05-16T04:06:14;97720.59;;;8.02;100.00
54918;BME280;40818;50.562;7.454;2023-05-16T04:16:20;97736.84;;;7.88;100.00
54918;BME280;40818;50.562;7.454;2023-05-16T04:26:23;97736.94;;;7.86;100.00
54918;BME280;40818;50.562;7.454;2023-05-16T04:36:29;97757.34;;;7.59;100.00
54918;BME280;40818;50.562;7.454;2023-05-16T04:46:34;97758.25;;;7.58;100.00
54918;BME280;40818;50.562;7.454;2023-05-16T04:56:40;97774.72;;;7.40;100.00
54918;BME280;40818;50.562;7.454;2023-05-16T05:06:44;97793.78;;;7.37;100.00
54918;BME280;40818;50.562;7.454;2023-05-16T05:16:50;97802.41;;;7.20;100.00
54918;BME280;40818;50.562;7.454;2023-05-16T05:26:53;97817.97;;;7.18;100.00
54918;BME280;40818;50.562;7.454;2023-05-16T05:36:59;97829.50;;;7.29;100.00
54918;BME280;40818;50.562;7.454;2023-05-16T05:47:03;97845.16;;;7.26;100.00
54918;BME280;40818;50.562;7.454;2023-05-16T05:57:09;97853.25;;;7.18;100.00
54918;BME280;40818;50.562;7.454;2023-05-16T06:07:12;97868.47;;;7.24;100.00
54918;BME280;40818;50.562;7.454;2023-05-16T06:17:20;97883.97;;;7.24;100.00
54918;BME280;40818;50.562;7.454;2023-05-16T06:27:24;97891.09;;;7.19;100.00
54918;BME280;40818;50.562;7.454;2023-05-16T06:37:30;97904.38;;;7.11;100.00
54918;BME280;40818;50.562;7.454;2023-05-16T06:47:33;97906.94;;;6.94;100.00
54918;BME280;40818;50.562;7.454;2023-05-16T06:57:39;97916.59;;;6.71;100.00
54918;BME280;40818;50.562;7.454;2023-05-16T07:07:43;97928.53;;;6.55;100.00
54918;BME280;40818;50.562;7.454;2023-05-16T07:17:49;97942.75;;;6.82;100.00
54918;BME280;40818;50.562;7.454;2023-05-16T07:27:52;97951.16;;;7.93;100.00
54918;BME280;40818;50.562;7.454;2023-05-16T07:37:59;97959.88;;;8.08;100.00
54918;BME280;40818;50.562;7.454;2023-05-16T07:48:02;97953.97;;;9.19;100.00
54918;BME280;40818;50.562;7.454;2023-05-16T07:58:08;97953.00;;;10.40;100.00
54918;BME280;40818;50.562;7.454;2023-05-16T08:08:12;97960.19;;;10.49;100.00
54918;BME280;40818;50.562;7.454;2023-05-16T08:18:18;97971.63;;;10.47;100.00
54918;BME280;40818;50.562;7.454;2023-05-16T08:28:21;97983.16;;;10.84;100.00
54918;BME280;40818;50.562;7.454;2023-05-16T08:38:27;97981.25;;;11.55;91.03
54918;BME280;40818;50.562;7.454;2023-05-16T08:48:31;97981.88;;;13.12;88.05
54918;BME280;40818;50.562;7.454;2023-05-16T08:58:38;97970.63;;;14.18;74.98
54918;BME280;40818;50.562;7.454;2023-05-16T09:08:42;97986.03;;;13.52;71.28
54918;BME280;40818;50.562;7.454;2023-05-16T09:18:55;97978.06;;;13.05;70.06
54918;BME280;40818;50.562;7.454;2023-05-16T09:28:59;97981.97;;;13.94;70.30
54918;BME280;40818;50.562;7.454;2023-05-16T09:39:06;97975.19;;;15.16;61.32
54918;BME280;40818;50.562;7.454;2023-05-16T09:49:11;97988.25;;;16.24;58.68
54918;BME280;40818;50.562;7.454;2023-05-16T09:59:17;97988.75;;;16.38;52.76
54918;BME280;40818;50.562;7.454;2023-05-16T10:09:21;97983.50;;;17.39;52.28
54918;BME280;40818;50.562;7.454;2023-05-16T10:19:28;97978.22;;;18.55;50.17
54918;BME280;40818;50.562;7.454;2023-05-16T10:29:34;97973.94;;;18.82;50.01
54918;BME280;40818;50.562;7.454;2023-05-16T10:39:40;97978.44;;;19.00;48.05
54918;BME280;40818;50.562;7.454;2023-05-16T10:49:44;97966.41;;;19.87;44.52
54918;BME280;40818;50.562;7.454;2023-05-16T10:59:50;97979.06;;;19.30;41.30
54918;BME280;40818;50.562;7.454;2023-05-16T11:10:04;97982.06;;;19.17;40.59
54918;BME280;40818;50.562;7.454;2023-05-16T11:20:24;97974.91;;;19.99;42.38
54918;BME280;40818;50.562;7.454;2023-05-16T11:30:27;97976.47;;;20.10;42.40
54918;BME280;40818;50.562;7.454;2023-05-16T11:40:33;97990.69;;;20.52;40.48
54918;BME280;40818;50.562;7.454;2023-05-16T11:50:37;97993.16;;;20.79;39.50
54918;BME280;40818;50.562;7.454;2023-05-16T12:00:49;97978.25;;;20.36;38.64
54918;BME280;40818;50.562;7.454;2023-05-16T12:10:53;97981.78;;;20.87;38.72
54918;BME280;40818;50.562;7.454;2023-05-16T12:20:59;97980.47;;;20.83;37.05
54918;BME280;40818;50.562;7.454;2023-05-16T12:31:02;97995.34;;;20.05;40.32
54918;BME280;40818;50.562;7.454;2023-05-16T12:41:08;97982.91;;;19.35;37.61
54918;BME280;40818;50.562;7.454;2023-05-16T12:51:13;97994.34;;;18.70;37.92
54918;BME280;40818;50.562;7.454;2023-05-16T13:01:19;97995.69;;;17.50;40.55
54918;BME280;40818;50.562;7.454;2023-05-16T13:11:23;97991.78;;;17.84;41.33
54918;BME280;40818;50.562;7.454;2023-05-16T13:21:29;97994.84;;;17.69;39.69
54918;BME280;40818;50.562;7.454;2023-05-16T13:31:33;98008.63;;;17.13;41.25
54918;BME280;40818;50.562;7.454;2023-05-16T13:41:41;98009.56;;;15.77;43.12
54918;BME280;40818;50.562;7.454;2023-05-16T13:51:45;98011.88;;;16.33;44.09
54918;BME280;40818;50.562;7.454;2023-05-16T14:01:51;98020.47;;;16.66;44.90
54918;BME280;40818;50.562;7.454;2023-05-16T14:11:55;98018.31;;;16.81;43.78
54918;BME280;40818;50.562;7.454;2023-05-16T14:22:01;98030.88;;;17.38;43.16
54918;BME280;40818;50.562;7.454;2023-05-16T14:32:05;98028.41;;;16.55;44.49
54918;BME280;40818;50.562;7.454;2023-05-16T14:42:12;98019.97;;;15.67;47.86
54918;BME280;40818;50.562;7.454;2023-05-16T14:52:15;98017.78;;;15.51;45.90
54918;BME280;40818;50.562;7.454;2023-05-16T15:02:23;98020.88;;;15.01;43.72
54918;BME280;40818;50.562;7.454;2023-05-16T15:12:26;98030.38;;;14.79;44.86
54918;BME280;40818;50.562;7.454;2023-05-16T15:22:33;98031.09;;;14.47;44.00
54918;BME280;40818;50.562;7.454;2023-05-16T15:32:36;98036.41;;;14.46;45.66
54918;BME280;40818;50.562;7.454;2023-05-16T15:42:42;98033.22;;;14.88;46.43
54918;BME280;40818;50.562;7.454;2023-05-16T15:52:48;98045.91;;;14.58;44.30
54918;BME280;40818;50.562;7.454;2023-05-16T16:03:32;98065.28;;;13.97;46.46
54918;BME280;40818;50.562;7.454;2023-05-16T16:13:36;98058.63;;;13.69;47.14
54918;BME280;40818;50.562;7.454;2023-05-16T16:23:42;98059.31;;;13.36;46.31
54918;BME280;40818;50.562;7.454;2023-05-16T16:34:16;98066.66;;;13.05;48.00
54918;BME280;40818;50.562;7.454;2023-05-16T16:44:22;98081.72;;;12.62;50.27
54918;BME280;40818;50.562;7.454;2023-05-16T16:54:26;98081.09;;;11.93;53.23
54918;BME280;40818;50.562;7.454;2023-05-16T17:05:00;98088.44;;;12.01;54.26
54918;BME280;40818;50.562;7.454;2023-05-16T17:16:36;98085.00;;;12.00;54.83
54918;BME280;40818;50.562;7.454;2023-05-16T17:27:04;98093.53;;;11.48;57.25
54918;BME280;40818;50.562;7.454;2023-05-16T17:37:08;98094.69;;;11.29;56.96
54918;BME280;40818;50.562;7.454;2023-05-16T17:47:38;98107.91;;;10.83;58.46
54918;BME280;40818;50.562;7.454;2023-05-16T17:57:53;98112.53;;;10.63;60.05
54918;BME280;40818;50.562;7.454;2023-05-16T18:08:15;98123.28;;;10.43;63.36
54918;BME280;40818;50.562;7.454;2023-05-16T18:18:18;98122.78;;;10.20;63.60
54918;BME280;40818;50.562;7.454;2023-05-16T18:39:29;98149.41;;;9.77;65.16
54918;BME280;40818;50.562;7.454;2023-05-16T18:49:33;98155.78;;;9.55;67.00
54918;BME280;40818;50.562;7.454;2023-05-16T18:59:41;98160.66;;;9.12;71.65
54918;BME280;40818;50.562;7.454;2023-05-16T19:09:44;98162.84;;;8.86;74.58
54918;BME280;40818;50.562;7.454;2023-05-16T19:19:50;98178.63;;;8.82;76.53
54918;BME280;40818;50.562;7.454;2023-05-16T19:41:12;98204.84;;;8.58;75.78
54918;BME280;40818;50.562;7.454;2023-05-16T19:51:15;98216.31;;;8.52;76.43
54918;BME280;40818;50.562;7.454;2023-05-16T20:01:21;98225.72;;;8.36;79.94
54918;BME280;40818;50.562;7.454;2023-05-16T20:22:42;98232.41;;;8.40;82.24
54918;BME280;40818;50.562;7.454;2023-05-16T20:32:46;98245.84;;;8.48;81.23
54918;BME280;40818;50.562;7.454;2023-05-16T20:42:52;98248.78;;;8.41;83.16
54918;BME280;40818;50.562;7.454;2023-05-16T21:03:42;98253.13;;;8.40;87.37
54918;BME280;40818;50.562;7.454;2023-05-16T21:13:45;98257.09;;;8.47;87.63
54918;BME280;40818;50.562;7.454;2023-05-16T21:23:51;98259.78;;;8.46;89.39
54918;BME280;40818;50.562;7.454;2023-05-16T21:33:55;98258.22;;;8.42;91.23
54918;BME280;40818;50.562;7.454;2023-05-16T21:55:15;98286.59;;;8.43;91.59
54918;BME280;40818;50.562;7.454;2023-05-16T22:16:27;98296.66;;;8.13;90.57
54918;BME280;40818;50.562;7.454;2023-05-16T22:26:30;98295.47;;;7.82;92.66
54918;BME280;40818;50.562;7.454;2023-05-16T22:36:37;98293.91;;;7.59;93.91
54918;BME280;40818;50.562;7.454;2023-05-16T22:46:41;98303.56;;;7.34;95.38
54918;BME280;40818;50.562;7.454;2023-05-16T22:56:47;98317.59;;;7.29;93.12
54918;BME280;40818;50.562;7.454;2023-05-16T23:06:50;98316.63;;;7.11;95.04
54918;BME280;40818;50.562;7.454;2023-05-16T23:16:56;98325.38;;;7.07;93.34
54918;BME280;40818;50.562;7.454;2023-05-16T23:27:00;98321.06;;;6.87;96.69
54918;BME280;40818;50.562;7.454;2023-05-16T23:37:09;98329.91;;;6.81;95.01
54918;BME280;40818;50.562;7.454;2023-05-16T23:47:37;98322.97;;;6.81;99.06
54918;BME280;40818;50.562;7.454;2023-05-16T23:57:43;98332.22;;;6.87;97.44
